sensor_id;sensor_type;location;lat;lon;timestamp;pressure;altitude;pressure_sealevel;temperature;humidity
38466;BME280;24244;51.950;5.902;2023-10-08T00:00:24;102115.72;;;19.14;78.19
38466;BME280;24244;51.950;5.902;2023-10-08T00:03:13;102106.59;;;19.15;78.53
38466;BME280;24244;51.950;5.902;2023-10-08T00:05:40;102118.19;;;19.16;78.23
38466;BME280;24244;51.950;5.902;2023-10-08T00:08:08;102126.28;;;19.16;78.37
38466;BME280;24244;51.950;5.902;2023-10-08T00:10:41;102140.59;;;19.16;78.46
38466;BME280;24244;51.950;5.902;2023-10-08T00:13:09;102135.22;;;19.16;78.53
38466;BME280;24244;51.950;5.902;2023-10-08T00:15:36;102129.00;;;19.16;78.65
38466;BME280;24244;51.950;5.902;2023-10-08T00:18:04;102127.31;;;19.15;78.79
38466;BME280;24244;51.950;5.902;2023-10-08T00:20:32;102130.22;;;19.13;78.90
38466;BME280;24244;51.950;5.902;2023-10-08T00:23:09;102138.50;;;19.12;78.85
38466;BME280;24244;51.950;5.902;2023-10-08T00:25:36;102147.44;;;19.12;78.96
38466;BME280;24244;51.950;5.902;2023-10-08T00:28:09;102149.09;;;19.13;79.16
38466;BME280;24244;51.950;5.902;2023-10-08T00:30:40;102158.00;;;19.14;79.11
38466;BME280;24244;51.950;5.902;2023-10-08T00:33:08;102150.13;;;19.12;79.28
38466;BME280;24244;51.950;5.902;2023-10-08T00:35:38;102158.22;;;19.12;79.37
38466;BME280;24244;51.950;5.902;2023-10-08T00:38:08;102160.91;;;19.12;79.38
38466;BME280;24244;51.950;5.902;2023-10-08T00:40:41;102143.06;;;19.11;79.40
38466;BME280;24244;51.950;5.902;2023-10-08T00:43:31;102153.84;;;19.11;79.46
38466;BME280;24244;51.950;5.902;2023-10-08T00:46:02;102156.53;;;19.11;79.74
38466;BME280;24244;51.950;5.902;2023-10-08T00:48:29;102156.53;;;19.11;79.64
38466;BME280;24244;51.950;5.902;2023-10-08T00:51:02;102146.41;;;19.13;79.84
38466;BME280;24244;51.950;5.902;2023-10-08T00:53:48;102139.13;;;19.14;79.58
38466;BME280;24244;51.950;5.902;2023-10-08T00:56:18;102144.72;;;19.12;79.79
38466;BME280;24244;51.950;5.902;2023-10-08T00:58:47;102148.25;;;19.13;79.92
38466;BME280;24244;51.950;5.902;2023-10-08T01:01:18;102139.34;;;19.12;79.85
38466;BME280;24244;51.950;5.902;2023-10-08T01:03:47;102140.38;;;19.11;80.09
38466;BME280;24244;51.950;5.902;2023-10-08T01:06:17;102127.72;;;19.12;80.05
38466;BME280;24244;51.950;5.902;2023-10-08T01:08:46;102132.09;;;19.13;80.11
38466;BME280;24244;51.950;5.902;2023-10-08T01:11:24;102132.28;;;19.11;80.09
38466;BME280;24244;51.950;5.902;2023-10-08T01:14:11;102129.81;;;19.10;80.41
38466;BME280;24244;51.950;5.902;2023-10-08T01:16:38;102130.66;;;19.10;80.27
38466;BME280;24244;51.950;5.902;2023-10-08T01:19:08;102125.25;;;19.10;80.27
38466;BME280;24244;51.950;5.902;2023-10-08T01:21:40;102123.59;;;19.09;80.45
38466;BME280;24244;51.950;5.902;2023-10-08T01:24:08;102120.06;;;19.09;80.55
38466;BME280;24244;51.950;5.902;2023-10-08T01:26:35;102119.25;;;19.08;80.61
38466;BME280;24244;51.950;5.902;2023-10-08T01:29:08;102110.34;;;19.08;80.63
38466;BME280;24244;51.950;5.902;2023-10-08T01:31:36;102119.25;;;19.08;80.80
38466;BME280;24244;51.950;5.902;2023-10-08T01:34:03;102125.66;;;19.07;80.56
38466;BME280;24244;51.950;5.902;2023-10-08T01:36:30;102124.84;;;19.07;80.73
38466;BME280;24244;51.950;5.902;2023-10-08T01:38:58;102117.78;;;19.06;80.68
38466;BME280;24244;51.950;5.902;2023-10-08T01:41:26;102115.28;;;19.04;80.87
38466;BME280;24244;51.950;5.902;2023-10-08T01:43:57;102106.41;;;19.04;80.87
38466;BME280;24244;51.950;5.902;2023-10-08T01:46:26;102117.41;;;19.02;80.88
38466;BME280;24244;51.950;5.902;2023-10-08T01:48:54;102129.22;;;19.01;81.05
38466;BME280;24244;51.950;5.902;2023-10-08T01:51:30;102116.13;;;18.98;81.23
38466;BME280;24244;51.950;5.902;2023-10-08T01:54:16;102119.88;;;18.97;81.18
38466;BME280;24244;51.950;5.902;2023-10-08T01:56:49;102121.13;;;18.95;81.37
38466;BME280;24244;51.950;5.902;2023-10-08T01:59:17;102128.78;;;18.91;81.38
38466;BME280;24244;51.950;5.902;2023-10-08T02:01:44;102149.75;;;18.89;81.53
38466;BME280;24244;51.950;5.902;2023-10-08T02:04:12;102139.16;;;18.88;81.63
38466;BME280;24244;51.950;5.902;2023-10-08T02:06:40;102150.78;;;18.88;81.62
38466;BME280;24244;51.950;5.902;2023-10-08T02:09:06;102140.41;;;18.85;81.63
38466;BME280;24244;51.950;5.902;2023-10-08T02:11:44;102154.91;;;18.84;81.90
38466;BME280;24244;51.950;5.902;2023-10-08T02:14:12;102159.44;;;18.84;81.94
38466;BME280;24244;51.950;5.902;2023-10-08T02:16:42;102174.19;;;18.81;81.97
38466;BME280;24244;51.950;5.902;2023-10-08T02:19:09;102177.91;;;18.80;81.87
38466;BME280;24244;51.950;5.902;2023-10-08T02:21:40;102194.06;;;18.80;81.91
38466;BME280;24244;51.950;5.902;2023-10-08T02:24:07;102187.84;;;18.80;82.04
38466;BME280;24244;51.950;5.902;2023-10-08T02:26:35;102202.16;;;18.80;81.92
38466;BME280;24244;51.950;5.902;2023-10-08T02:29:02;102198.63;;;18.80;82.24
38466;BME280;24244;51.950;5.902;2023-10-08T02:31:34;102179.78;;;18.80;82.04
38466;BME280;24244;51.950;5.902;2023-10-08T02:34:01;102186.00;;;18.80;82.08
38466;BME280;24244;51.950;5.902;2023-10-08T02:36:28;102192.81;;;18.76;82.13
38466;BME280;24244;51.950;5.902;2023-10-08T02:38:55;102185.56;;;18.76;82.21
38466;BME280;24244;51.950;5.902;2023-10-08T02:41:21;102201.13;;;18.74;82.20
38466;BME280;24244;51.950;5.902;2023-10-08T02:43:51;102197.59;;;18.74;82.38
38466;BME280;24244;51.950;5.902;2023-10-08T02:46:18;102218.50;;;18.72;82.33
38466;BME280;24244;51.950;5.902;2023-10-08T02:48:47;102199.47;;;18.73;82.41
38466;BME280;24244;51.950;5.902;2023-10-08T02:51:14;102151.16;;;18.72;82.29
38466;BME280;24244;51.950;5.902;2023-10-08T02:53:41;102178.09;;;18.72;82.18
38466;BME280;24244;51.950;5.902;2023-10-08T02:56:13;102201.72;;;18.70;82.20
38466;BME280;24244;51.950;5.902;2023-10-08T02:58:40;102224.28;;;18.69;82.25
38466;BME280;24244;51.950;5.902;2023-10-08T03:01:08;102196.75;;;18.67;82.37
38466;BME280;24244;51.950;5.902;2023-10-08T03:03:39;102195.50;;;18.63;82.50
38466;BME280;24244;51.950;5.902;2023-10-08T03:06:09;102175.81;;;18.62;82.41
38466;BME280;24244;51.950;5.902;2023-10-08T03:08:41;102142.66;;;18.62;82.29
38466;BME280;24244;51.950;5.902;2023-10-08T03:11:09;102166.28;;;18.60;82.24
38466;BME280;24244;51.950;5.902;2023-10-08T03:13:46;102202.72;;;18.56;82.49
38466;BME280;24244;51.950;5.902;2023-10-08T03:16:13;102201.84;;;18.55;82.49
38466;BME280;24244;51.950;5.902;2023-10-08T03:18:41;102182.41;;;18.53;82.44
38466;BME280;24244;51.950;5.902;2023-10-08T03:21:18;102215.94;;;18.51;82.56
38466;BME280;24244;51.950;5.902;2023-10-08T03:23:59;102180.31;;;18.49;82.54
38466;BME280;24244;51.950;5.902;2023-10-08T03:26:33;102183.22;;;18.47;82.52
38466;BME280;24244;51.950;5.902;2023-10-08T03:29:02;102204.53;;;18.49;82.46
38466;BME280;24244;51.950;5.902;2023-10-08T03:31:34;102216.75;;;18.45;82.46
38466;BME280;24244;51.950;5.902;2023-10-08T03:34:14;102208.88;;;18.43;82.41
38466;BME280;24244;51.950;5.902;2023-10-08T03:36:43;102207.41;;;18.40;82.53
38466;BME280;24244;51.950;5.902;2023-10-08T03:39:14;102210.53;;;18.37;82.50
38466;BME280;24244;51.950;5.902;2023-10-08T03:41:41;102207.00;;;18.37;82.58
38466;BME280;24244;51.950;5.902;2023-10-08T03:44:09;102210.72;;;18.36;82.72
38466;BME280;24244;51.950;5.902;2023-10-08T03:46:44;102188.34;;;18.35;82.74
38466;BME280;24244;51.950;5.902;2023-10-08T03:49:13;102191.69;;;18.37;82.73
38466;BME280;24244;51.950;5.902;2023-10-08T03:51:51;102182.13;;;18.35;82.61
38466;BME280;24244;51.950;5.902;2023-10-08T03:54:19;102192.06;;;18.34;82.74
38466;BME280;24244;51.950;5.902;2023-10-08T03:56:47;102196.84;;;18.32;82.68
38466;BME280;24244;51.950;5.902;2023-10-08T03:59:21;102217.75;;;18.30;82.77
38466;BME280;24244;51.950;5.902;2023-10-08T04:02:02;102227.03;;;18.28;82.83
38466;BME280;24244;51.950;5.902;2023-10-08T04:04:50;102242.38;;;18.27;82.79
38466;BME280;24244;51.950;5.902;2023-10-08T04:07:27;102238.00;;;18.26;83.15
38466;BME280;24244;51.950;5.902;2023-10-08T04:10:00;102235.53;;;18.25;82.91
38466;BME280;24244;51.950;5.902;2023-10-08T04:12:47;102238.22;;;18.25;83.10
38466;BME280;24244;51.950;5.902;2023-10-08T04:15:18;102248.16;;;18.24;82.94
38466;BME280;24244;51.950;5.902;2023-10-08T04:17:45;102249.00;;;18.25;83.07
38466;BME280;24244;51.950;5.902;2023-10-08T04:20:13;102256.03;;;18.26;82.97
38466;BME280;24244;51.950;5.902;2023-10-08T04:23:03;102271.38;;;18.25;83.04
38466;BME280;24244;51.950;5.902;2023-10-08T04:25:40;102269.69;;;18.24;83.12
38466;BME280;24244;51.950;5.902;2023-10-08T04:28:10;102284.00;;;18.25;83.20
38466;BME280;24244;51.950;5.902;2023-10-08T04:30:41;102278.59;;;18.25;83.29
38466;BME280;24244;51.950;5.902;2023-10-08T04:33:08;102284.00;;;18.25;83.29
38466;BME280;24244;51.950;5.902;2023-10-08T04:35:41;102284.81;;;18.25;83.32
38466;BME280;24244;51.950;5.902;2023-10-08T04:38:19;102288.34;;;18.26;83.23
38466;BME280;24244;51.950;5.902;2023-10-08T04:40:48;102295.59;;;18.25;83.26
38466;BME280;24244;51.950;5.902;2023-10-08T04:43:18;102298.25;;;18.19;83.31
38466;BME280;24244;51.950;5.902;2023-10-08T04:45:52;102286.41;;;18.13;83.54
38466;BME280;24244;51.950;5.902;2023-10-08T04:48:19;102291.16;;;18.11;83.68
38466;BME280;24244;51.950;5.902;2023-10-08T04:50:48;102293.19;;;18.03;83.67
38466;BME280;24244;51.950;5.902;2023-10-08T04:53:36;102277.84;;;17.96;83.72
38466;BME280;24244;51.950;5.902;2023-10-08T04:56:06;102276.53;;;17.92;83.52
38466;BME280;24244;51.950;5.902;2023-10-08T04:58:53;102270.75;;;17.89;83.45
38466;BME280;24244;51.950;5.902;2023-10-08T05:01:20;102271.97;;;17.86;83.27
38466;BME280;24244;51.950;5.902;2023-10-08T05:03:48;102276.91;;;17.83;83.29
38466;BME280;24244;51.950;5.902;2023-10-08T05:06:26;102273.97;;;17.78;83.22
38466;BME280;24244;51.950;5.902;2023-10-08T05:09:04;102277.44;;;17.72;83.28
38466;BME280;24244;51.950;5.902;2023-10-08T05:11:37;102281.34;;;17.69;83.13
38466;BME280;24244;51.950;5.902;2023-10-08T05:14:24;102292.50;;;17.66;83.18
38466;BME280;24244;51.950;5.902;2023-10-08T05:17:02;102298.50;;;17.62;83.10
38466;BME280;24244;51.950;5.902;2023-10-08T05:19:52;102312.28;;;17.58;83.15
38466;BME280;24244;51.950;5.902;2023-10-08T05:22:34;102307.91;;;17.57;83.05
38466;BME280;24244;51.950;5.902;2023-10-08T05:25:12;102300.25;;;17.54;83.09
38466;BME280;24244;51.950;5.902;2023-10-08T05:27:45;102313.06;;;17.52;83.05
38466;BME280;24244;51.950;5.902;2023-10-08T05:30:16;102311.56;;;17.50;82.85
38466;BME280;24244;51.950;5.902;2023-10-08T05:32:52;102315.50;;;17.47;82.89
38466;BME280;24244;51.950;5.902;2023-10-08T05:35:39;102326.81;;;17.43;82.71
38466;BME280;24244;51.950;5.902;2023-10-08T05:38:07;102322.88;;;17.39;83.01
38466;BME280;24244;51.950;5.902;2023-10-08T05:40:52;102337.50;;;17.36;82.89
38466;BME280;24244;51.950;5.902;2023-10-08T05:43:27;102340.97;;;17.30;82.68
38466;BME280;24244;51.950;5.902;2023-10-08T05:46:03;102349.41;;;17.27;82.85
38466;BME280;24244;51.950;5.902;2023-10-08T05:48:48;102350.81;;;17.23;82.90
38466;BME280;24244;51.950;5.902;2023-10-08T05:51:35;102365.69;;;17.19;82.82
38466;BME280;24244;51.950;5.902;2023-10-08T05:54:17;102372.44;;;17.15;82.67
38466;BME280;24244;51.950;5.902;2023-10-08T05:56:56;102352.97;;;17.13;82.72
38466;BME280;24244;51.950;5.902;2023-10-08T05:59:40;102344.66;;;17.08;82.65
38466;BME280;24244;51.950;5.902;2023-10-08T06:02:25;102337.00;;;17.05;82.74
38466;BME280;24244;51.950;5.902;2023-10-08T06:05:15;102355.16;;;17.03;82.76
38466;BME280;24244;51.950;5.902;2023-10-08T06:07:51;102372.88;;;16.97;82.69
38466;BME280;24244;51.950;5.902;2023-10-08T06:10:24;102383.16;;;16.94;82.62
38466;BME280;24244;51.950;5.902;2023-10-08T06:13:01;102403.38;;;16.90;82.65
38466;BME280;24244;51.950;5.902;2023-10-08T06:15:35;102405.75;;;16.84;82.61
38466;BME280;24244;51.950;5.902;2023-10-08T06:18:15;102383.34;;;16.77;82.55
38466;BME280;24244;51.950;5.902;2023-10-08T06:20:42;102364.78;;;16.76;82.55
38466;BME280;24244;51.950;5.902;2023-10-08T06:23:13;102353.38;;;16.74;82.49
38466;BME280;24244;51.950;5.902;2023-10-08T06:25:44;102353.56;;;16.72;82.47
38466;BME280;24244;51.950;5.902;2023-10-08T06:28:16;102395.03;;;16.70;82.39
38466;BME280;24244;51.950;5.902;2023-10-08T06:30:46;102382.81;;;16.67;82.32
38466;BME280;24244;51.950;5.902;2023-10-08T06:33:14;102401.97;;;16.64;82.18
38466;BME280;24244;51.950;5.902;2023-10-08T06:35:41;102413.09;;;16.61;82.20
38466;BME280;24244;51.950;5.902;2023-10-08T06:38:11;102418.97;;;16.57;82.23
38466;BME280;24244;51.950;5.902;2023-10-08T06:40:42;102429.09;;;16.55;82.18
38466;BME280;24244;51.950;5.902;2023-10-08T06:43:10;102424.25;;;16.50;82.11
38466;BME280;24244;51.950;5.902;2023-10-08T06:45:52;102410.22;;;16.48;82.14
38466;BME280;24244;51.950;5.902;2023-10-08T06:48:20;102408.53;;;16.47;82.11
38466;BME280;24244;51.950;5.902;2023-10-08T06:50:48;102429.19;;;16.47;81.93
38466;BME280;24244;51.950;5.902;2023-10-08T06:53:16;102416.78;;;16.45;81.89
38466;BME280;24244;51.950;5.902;2023-10-08T06:55:45;102417.97;;;16.43;81.85
38466;BME280;24244;51.950;5.902;2023-10-08T06:58:14;102419.19;;;16.40;81.95
38466;BME280;24244;51.950;5.902;2023-10-08T07:00:41;102424.72;;;16.39;81.71
38466;BME280;24244;51.950;5.902;2023-10-08T07:03:19;102435.66;;;16.37;81.81
38466;BME280;24244;51.950;5.902;2023-10-08T07:05:48;102433.97;;;16.36;81.81
38466;BME280;24244;51.950;5.902;2023-10-08T07:08:26;102436.84;;;16.35;82.01
38466;BME280;24244;51.950;5.902;2023-10-08T07:10:54;102438.06;;;16.32;81.80
38466;BME280;24244;51.950;5.902;2023-10-08T07:13:23;102440.72;;;16.32;81.88
38466;BME280;24244;51.950;5.902;2023-10-08T07:15:52;102433.53;;;16.33;81.72
38466;BME280;24244;51.950;5.902;2023-10-08T07:18:20;102433.53;;;16.33;81.79
38466;BME280;24244;51.950;5.902;2023-10-08T07:20:54;102437.03;;;16.33;81.70
38466;BME280;24244;51.950;5.902;2023-10-08T07:23:23;102432.50;;;16.34;81.46
38466;BME280;24244;51.950;5.902;2023-10-08T07:25:57;102442.75;;;16.30;81.71
38466;BME280;24244;51.950;5.902;2023-10-08T07:28:44;102451.66;;;16.31;81.63
38466;BME280;24244;51.950;5.902;2023-10-08T07:31:13;102459.03;;;16.29;81.60
38466;BME280;24244;51.950;5.902;2023-10-08T07:33:43;102456.53;;;16.27;81.57
38466;BME280;24244;51.950;5.902;2023-10-08T07:36:11;102459.88;;;16.29;81.63
38466;BME280;24244;51.950;5.902;2023-10-08T07:38:44;102453.66;;;16.29;81.24
38466;BME280;24244;51.950;5.902;2023-10-08T07:41:12;102459.88;;;16.29;81.49
38466;BME280;24244;51.950;5.902;2023-10-08T07:43:41;102460.88;;;16.28;81.59
38466;BME280;24244;51.950;5.902;2023-10-08T07:46:13;102465.41;;;16.28;81.60
38466;BME280;24244;51.950;5.902;2023-10-08T07:48:43;102466.06;;;16.30;81.38
38466;BME280;24244;51.950;5.902;2023-10-08T07:51:10;102472.28;;;16.30;81.46
38466;BME280;24244;51.950;5.902;2023-10-08T07:53:37;102468.75;;;16.30;81.46
38466;BME280;24244;51.950;5.902;2023-10-08T07:56:05;102467.75;;;16.31;81.52
38466;BME280;24244;51.950;5.902;2023-10-08T07:58:35;102460.72;;;16.30;81.58
38466;BME280;24244;51.950;5.902;2023-10-08T08:01:06;102461.72;;;16.29;81.56
38466;BME280;24244;51.950;5.902;2023-10-08T08:03:33;102462.72;;;16.28;81.50
38466;BME280;24244;51.950;5.902;2023-10-08T08:06:06;102475.13;;;16.29;81.45
38466;BME280;24244;51.950;5.902;2023-10-08T08:08:34;102477.19;;;16.27;81.65
38466;BME280;24244;51.950;5.902;2023-10-08T08:11:03;102495.31;;;16.25;81.63
38466;BME280;24244;51.950;5.902;2023-10-08T08:13:39;102494.47;;;16.24;81.71
38466;BME280;24244;51.950;5.902;2023-10-08T08:16:11;102492.81;;;16.23;81.83
38466;BME280;24244;51.950;5.902;2023-10-08T08:18:45;102491.78;;;16.24;81.76
38466;BME280;24244;51.950;5.902;2023-10-08T08:21:15;102500.84;;;16.23;81.93
38466;BME280;24244;51.950;5.902;2023-10-08T08:23:44;102507.91;;;16.24;81.79
38466;BME280;24244;51.950;5.902;2023-10-08T08:26:15;102517.13;;;16.22;82.07
38466;BME280;24244;51.950;5.902;2023-10-08T08:28:54;102522.50;;;16.22;82.11
38466;BME280;24244;51.950;5.902;2023-10-08T08:31:21;102536.91;;;16.21;82.38
38466;BME280;24244;51.950;5.902;2023-10-08T08:33:49;102542.66;;;16.18;82.46
38466;BME280;24244;51.950;5.902;2023-10-08T08:36:21;102552.06;;;16.14;82.34
38466;BME280;24244;51.950;5.902;2023-10-08T08:38:48;102544.22;;;16.12;82.68
38466;BME280;24244;51.950;5.902;2023-10-08T08:41:15;102549.59;;;16.12;82.66
38466;BME280;24244;51.950;5.902;2023-10-08T08:43:49;102544.22;;;16.12;82.59
38466;BME280;24244;51.950;5.902;2023-10-08T08:46:16;102544.22;;;16.12;82.66
38466;BME280;24244;51.950;5.902;2023-10-08T08:48:43;102542.38;;;16.13;82.46
38466;BME280;24244;51.950;5.902;2023-10-08T08:51:15;102542.16;;;16.14;82.48
38466;BME280;24244;51.950;5.902;2023-10-08T08:53:43;102546.53;;;16.15;82.57
38466;BME280;24244;51.950;5.902;2023-10-08T08:56:10;102546.34;;;16.17;82.55
38466;BME280;24244;51.950;5.902;2023-10-08T08:58:39;102553.22;;;16.19;82.56
38466;BME280;24244;51.950;5.902;2023-10-08T09:01:10;102554.88;;;16.20;82.72
38466;BME280;24244;51.950;5.902;2023-10-08T09:03:40;102562.56;;;16.23;82.53
38466;BME280;24244;51.950;5.902;2023-10-08T09:06:08;102564.25;;;16.24;82.41
38466;BME280;24244;51.950;5.902;2023-10-08T09:08:36;102552.31;;;16.27;82.64
38466;BME280;24244;51.950;5.902;2023-10-08T09:11:04;102562.03;;;16.28;82.46
38466;BME280;24244;51.950;5.902;2023-10-08T09:13:31;102553.78;;;16.29;82.45
38466;BME280;24244;51.950;5.902;2023-10-08T09:16:17;102543.91;;;16.30;82.20
38466;BME280;24244;51.950;5.902;2023-10-08T09:18:44;102541.22;;;16.30;82.40
38466;BME280;24244;51.950;5.902;2023-10-08T09:21:15;102541.22;;;16.30;82.16
38466;BME280;24244;51.950;5.902;2023-10-08T09:23:42;102544.72;;;16.30;82.14
38466;BME280;24244;51.950;5.902;2023-10-08T09:26:13;102550.94;;;16.31;82.10
38466;BME280;24244;51.950;5.902;2023-10-08T09:28:45;102550.59;;;16.34;82.20
38466;BME280;24244;51.950;5.902;2023-10-08T09:31:13;102546.69;;;16.36;81.85
38466;BME280;24244;51.950;5.902;2023-10-08T09:33:40;102535.78;;;16.38;81.61
38466;BME280;24244;51.950;5.902;2023-10-08T09:36:09;102541.31;;;16.36;81.72
38466;BME280;24244;51.950;5.902;2023-10-08T09:38:45;102543.00;;;16.37;81.58
38466;BME280;24244;51.950;5.902;2023-10-08T09:41:17;102543.84;;;16.38;81.58
38466;BME280;24244;51.950;5.902;2023-10-08T09:43:46;102541.81;;;16.40;81.34
38466;BME280;24244;51.950;5.902;2023-10-08T09:46:18;102544.50;;;16.40;81.25
38466;BME280;24244;51.950;5.902;2023-10-08T09:48:49;102545.34;;;16.40;81.13
38466;BME280;24244;51.950;5.902;2023-10-08T09:51:20;102550.69;;;16.40;81.25
38466;BME280;24244;51.950;5.902;2023-10-08T09:53:52;102559.59;;;16.41;81.31
38466;BME280;24244;51.950;5.902;2023-10-08T09:56:24;102549.50;;;16.43;81.30
38466;BME280;24244;51.950;5.902;2023-10-08T09:58:51;102539.41;;;16.45;81.11
38466;BME280;24244;51.950;5.902;2023-10-08T10:01:19;102549.13;;;16.46;80.88
38466;BME280;24244;51.950;5.902;2023-10-08T10:03:47;102542.56;;;16.49;80.83
38466;BME280;24244;51.950;5.902;2023-10-08T10:06:17;102545.06;;;16.50;80.70
38466;BME280;24244;51.950;5.902;2023-10-08T10:08:45;102555.63;;;16.52;80.71
38466;BME280;24244;51.950;5.902;2023-10-08T10:11:15;102549.91;;;16.55;80.66
38466;BME280;24244;51.950;5.902;2023-10-08T10:13:49;102545.38;;;16.55;80.58
38466;BME280;24244;51.950;5.902;2023-10-08T10:16:17;102547.00;;;16.56;80.42
38466;BME280;24244;51.950;5.902;2023-10-08T10:18:45;102550.38;;;16.58;80.38
38466;BME280;24244;51.950;5.902;2023-10-08T10:21:26;102553.75;;;16.60;80.34
38466;BME280;24244;51.950;5.902;2023-10-08T10:23:54;102558.09;;;16.61;80.24
38466;BME280;24244;51.950;5.902;2023-10-08T10:26:25;102554.56;;;16.61;80.34
38466;BME280;24244;51.950;5.902;2023-10-08T10:29:21;102540.97;;;16.62;80.09
38466;BME280;24244;51.950;5.902;2023-10-08T10:31:50;102537.25;;;16.63;80.15
38466;BME280;24244;51.950;5.902;2023-10-08T10:34:22;102540.59;;;16.65;80.07
38466;BME280;24244;51.950;5.902;2023-10-08T10:36:51;102536.72;;;16.68;79.98
38466;BME280;24244;51.950;5.902;2023-10-08T10:39:23;102545.41;;;16.70;79.96
38466;BME280;24244;51.950;5.902;2023-10-08T10:41:55;102555.97;;;16.71;79.89
38466;BME280;24244;51.950;5.902;2023-10-08T10:44:30;102554.59;;;16.75;79.58
38466;BME280;24244;51.950;5.902;2023-10-08T10:46:59;102552.75;;;16.76;79.84
38466;BME280;24244;51.950;5.902;2023-10-08T10:49:46;102552.53;;;16.77;79.61
38466;BME280;24244;51.950;5.902;2023-10-08T10:52:23;102556.72;;;16.80;79.64
38466;BME280;24244;51.950;5.902;2023-10-08T10:55:02;102554.53;;;16.83;79.27
38466;BME280;24244;51.950;5.902;2023-10-08T10:57:44;102547.09;;;16.86;79.41
38466;BME280;24244;51.950;5.902;2023-10-08T11:00:13;102548.41;;;16.90;79.22
38466;BME280;24244;51.950;5.902;2023-10-08T11:03:06;102544.72;;;16.91;79.40
38466;BME280;24244;51.950;5.902;2023-10-08T11:05:45;102542.31;;;16.96;79.37
38466;BME280;24244;51.950;5.902;2023-10-08T11:08:19;102547.28;;;16.99;79.24
38466;BME280;24244;51.950;5.902;2023-10-08T11:10:51;102542.75;;;16.99;79.11
38466;BME280;24244;51.950;5.902;2023-10-08T11:13:20;102537.19;;;17.01;79.06
38466;BME280;24244;51.950;5.902;2023-10-08T11:15:50;102540.38;;;17.04;79.11
38466;BME280;24244;51.950;5.902;2023-10-08T11:18:19;102537.94;;;17.09;79.06
38466;BME280;24244;51.950;5.902;2023-10-08T11:20:48;102532.38;;;17.11;78.86
38466;BME280;24244;51.950;5.902;2023-10-08T11:23:31;102533.84;;;17.13;78.91
38466;BME280;24244;51.950;5.902;2023-10-08T11:26:01;102531.00;;;17.15;78.70
38466;BME280;24244;51.950;5.902;2023-10-08T11:28:38;102527.28;;;17.16;78.90
38466;BME280;24244;51.950;5.902;2023-10-08T11:31:17;102520.72;;;17.18;78.77
38466;BME280;24244;51.950;5.902;2023-10-08T11:33:47;102517.81;;;17.20;78.96
38466;BME280;24244;51.950;5.902;2023-10-08T11:36:23;102522.84;;;17.23;78.79
38466;BME280;24244;51.950;5.902;2023-10-08T11:39:10;102519.78;;;17.26;78.71
38466;BME280;24244;51.950;5.902;2023-10-08T11:41:40;102522.91;;;17.30;78.97
38466;BME280;24244;51.950;5.902;2023-10-08T11:44:18;102526.44;;;17.30;78.55
38466;BME280;24244;51.950;5.902;2023-10-08T11:46:47;102520.03;;;17.31;78.58
38466;BME280;24244;51.950;5.902;2023-10-08T11:49:18;102514.66;;;17.31;78.34
38466;BME280;24244;51.950;5.902;2023-10-08T11:51:46;102518.81;;;17.34;78.48
38466;BME280;24244;51.950;5.902;2023-10-08T11:54:13;102524.00;;;17.35;78.39
38466;BME280;24244;51.950;5.902;2023-10-08T11:56:41;102520.31;;;17.36;78.07
38466;BME280;24244;51.950;5.902;2023-10-08T11:59:08;102521.63;;;17.40;78.41
38466;BME280;24244;51.950;5.902;2023-10-08T12:01:35;102531.72;;;17.38;78.15
38466;BME280;24244;51.950;5.902;2023-10-08T12:04:06;102521.31;;;17.35;78.26
38466;BME280;24244;51.950;5.902;2023-10-08T12:06:40;102518.00;;;17.33;78.08
38466;BME280;24244;51.950;5.902;2023-10-08T12:09:13;102507.63;;;17.30;78.21
38466;BME280;24244;51.950;5.902;2023-10-08T12:11:43;102510.97;;;17.32;78.16
38466;BME280;24244;51.950;5.902;2023-10-08T12:14:10;102503.25;;;17.29;78.16
38466;BME280;24244;51.950;5.902;2023-10-08T12:16:38;102501.78;;;17.27;78.17
38466;BME280;24244;51.950;5.902;2023-10-08T12:19:08;102503.44;;;17.28;78.02
38466;BME280;24244;51.950;5.902;2023-10-08T12:21:46;102490.00;;;17.28;78.20
38466;BME280;24244;51.950;5.902;2023-10-08T12:24:14;102485.66;;;17.27;78.13
38466;BME280;24244;51.950;5.902;2023-10-08T12:26:41;102481.09;;;17.27;78.26
38466;BME280;24244;51.950;5.902;2023-10-08T12:29:12;102479.06;;;17.29;78.18
38466;BME280;24244;51.950;5.902;2023-10-08T12:31:41;102479.06;;;17.29;78.21
38466;BME280;24244;51.950;5.902;2023-10-08T12:34:09;102472.88;;;17.29;78.17
38466;BME280;24244;51.950;5.902;2023-10-08T12:36:38;102466.84;;;17.27;78.26
38466;BME280;24244;51.950;5.902;2023-10-08T12:39:05;102456.91;;;17.27;78.40
38466;BME280;24244;51.950;5.902;2023-10-08T12:41:41;102457.13;;;17.26;78.36
38466;BME280;24244;51.950;5.902;2023-10-08T12:44:11;102448.00;;;17.27;78.44
38466;BME280;24244;51.950;5.902;2023-10-08T12:46:38;102443.28;;;17.29;78.63
38466;BME280;24244;51.950;5.902;2023-10-08T12:49:09;102436.91;;;17.30;78.59
38466;BME280;24244;51.950;5.902;2023-10-08T12:51:36;102434.41;;;17.28;78.63
38466;BME280;24244;51.950;5.902;2023-10-08T12:54:08;102442.09;;;17.31;78.67
38466;BME280;24244;51.950;5.902;2023-10-08T12:56:40;102437.56;;;17.32;78.79
38466;BME280;24244;51.950;5.902;2023-10-08T12:59:15;102440.25;;;17.32;78.60
38466;BME280;24244;51.950;5.902;2023-10-08T13:01:48;102441.69;;;17.34;78.82
38466;BME280;24244;51.950;5.902;2023-10-08T13:04:20;102425.56;;;17.34;78.81
38466;BME280;24244;51.950;5.902;2023-10-08T13:06:56;102423.53;;;17.36;78.89
38466;BME280;24244;51.950;5.902;2023-10-08T13:09:24;102420.66;;;17.38;78.83
38466;BME280;24244;51.950;5.902;2023-10-08T13:11:51;102427.06;;;17.37;78.79
38466;BME280;24244;51.950;5.902;2023-10-08T13:14:18;102429.75;;;17.37;78.84